Terminal Aerodrome Forecast
Issued by NWS

Home | Current Version | Previous Version | Text Only | Print | Product List | Glossary On
Versions: 1 2 3 4 5 6 7 8 9 10 11 12 13 14 15 16
000
FTUS41 KBOX 291733
TAFHYA
TAF
KHYA 291733Z 2918/3018 23013G20KT P6SM SCT010 BKN250
     FM300000 26011KT P6SM SCT080
     FM300400 30010KT P6SM SCT080
     FM300600 34006KT P6SM SCT090
     FM301100 02010KT P6SM FEW200
     FM301700 06008KT P6SM SCT150=

USA.gov is the U.S. government's official web portal to all federal, state and local government web resources and services.